Time;durP1;ratioP1;P1;durP2;ratioP2;P2;SDS_P1;SDS_P2;PMS_P1;PMS_P2;Temp;Humidity;BMP_temperature;BMP_pressure;BME280_temperature;BME280_humidity;BME280_pressure;Samples;Min_cycle;Max_cycle;Signal;HPM_P1;HPM_P2
2021/03/10 00:00:49;;;;;;;20.27;10.88;;;;;;;8.18;36.44;100551.61;1771492;80;21401;-72
2021/03/10 00:03:16;;;;;;;19.35;10.50;;;;;;;8.17;36.41;100547.27;1774429;80;21142;-72
2021/03/10 00:05:44;;;;;;;17.00;10.68;;;;;;;8.16;36.41;100552.23;1710485;82;21670;-73
2021/03/10 00:08:13;;;;;;;15.28;9.58;;;;;;;8.15;36.39;100545.25;1724106;82;21173;-72
2021/03/10 00:10:40;;;;;;;15.43;9.68;;;;;;;8.13;36.40;100547.19;1739765;82;21147;-71
2021/03/10 00:13:08;;;;;;;15.25;9.53;;;;;;;8.12;36.39;100542.89;1739608;82;21216;-71
2021/03/10 00:15:36;;;;;;;14.95;9.80;;;;;;;8.11;36.37;100548.64;1738893;82;21202;-72
2021/03/10 00:18:05;;;;;;;13.53;9.10;;;;;;;8.08;36.31;100549.75;1739612;82;21157;-71
2021/03/10 00:20:32;;;;;;;14.75;9.35;;;;;;;8.07;36.33;100548.09;1761928;80;21555;-71
2021/03/10 00:22:59;;;;;;;14.50;8.78;;;;;;;8.06;36.27;100545.08;1707665;82;21166;-71
2021/03/10 00:25:26;;;;;;;14.83;8.20;;;;;;;8.05;36.25;100543.42;1711843;82;21232;-71
2021/03/10 00:27:54;;;;;;;12.37;7.72;;;;;;;8.03;36.22;100534.75;1775394;80;21126;-72
2021/03/10 00:30:22;;;;;;;13.75;7.72;;;;;;;8.02;36.22;100541.52;1771790;80;21150;-71
2021/03/10 00:32:50;;;;;;;11.57;6.95;;;;;;;8.00;36.20;100532.88;1770752;80;21159;-72
2021/03/10 00:35:19;;;;;;;10.58;7.47;;;;;;;7.98;36.22;100531.68;1767375;80;21146;-72
2021/03/10 00:37:47;;;;;;;10.90;6.70;;;;;;;7.98;36.10;100531.68;1763028;80;21351;-72
2021/03/10 00:40:16;;;;;;;11.50;7.17;;;;;;;7.97;36.09;100530.48;1765163;80;21466;-72
2021/03/10 00:42:46;;;;;;;12.28;6.65;;;;;;;7.94;36.11;100532.92;1769798;80;21170;-71
2021/03/10 00:45:15;;;;;;;10.28;5.90;;;;;;;7.93;36.11;100531.22;1774534;80;21199;-71
2021/03/10 00:47:42;;;;;;;11.05;7.08;;;;;;;7.92;36.11;100530.89;1774394;79;21129;-71
2021/03/10 00:50:12;;;;;;;9.50;6.10;;;;;;;7.90;36.06;100528.86;1773005;80;21364;-72
2021/03/10 00:52:40;;;;;;;10.98;6.85;;;;;;;7.89;36.09;100528.50;1769657;80;21153;-72
2021/03/10 00:55:11;;;;;;;11.45;7.85;;;;;;;7.88;36.05;100531.63;1764685;80;21154;-71
2021/03/10 00:57:39;;;;;;;11.68;8.20;;;;;;;7.87;36.06;100533.08;1773170;80;21157;-71
2021/03/10 01:00:08;;;;;;;12.93;8.20;;;;;;;7.85;36.06;100531.87;1774955;80;21130;-71
2021/03/10 01:02:35;;;;;;;12.18;8.93;;;;;;;7.84;36.04;100528.90;1779074;80;21361;-71
2021/03/10 01:05:04;;;;;;;13.58;9.03;;;;;;;7.83;36.10;100527.20;1768301;79;21967;-70
2021/03/10 01:07:33;;;;;;;14.65;9.30;;;;;;;7.82;36.00;100529.98;1778071;80;21685;-71
2021/03/10 01:10:04;;;;;;;15.80;9.50;;;;;;;7.79;36.01;100531.58;1778891;80;21139;-71
2021/03/10 01:12:31;;;;;;;16.67;9.25;;;;;;;7.78;36.03;100523.28;1779930;79;21091;-70
2021/03/10 01:14:59;;;;;;;13.70;9.25;;;;;;;7.77;36.00;100522.94;1778095;80;21394;-72
2021/03/10 01:17:26;;;;;;;14.23;8.88;;;;;;;7.75;36.04;100520.42;1772968;79;21130;-71
2021/03/10 01:19:56;;;;;;;16.52;10.70;;;;;;;7.75;36.04;100527.52;1773307;79;21628;-72
2021/03/10 01:22:26;;;;;;;15.95;9.60;;;;;;;7.74;36.01;100521.87;1776513;79;21157;-72
2021/03/10 01:24:56;;;;;;;13.62;8.98;;;;;;;7.73;35.99;100519.72;1760345;81;21182;-72
2021/03/10 01:27:25;;;;;;;12.90;8.65;;;;;;;7.72;35.95;100525.13;1763583;81;21333;-72
2021/03/10 01:29:52;;;;;;;13.20;8.70;;;;;;;7.70;35.98;100526.58;1764832;79;21168;-72
2021/03/10 01:32:20;;;;;;;12.82;8.08;;;;;;;7.70;36.00;100528.39;1762471;79;21113;-72
2021/03/10 01:34:48;;;;;;;12.58;8.50;;;;;;;7.68;35.98;100529.84;1761775;80;21172;-71
2021/03/10 01:37:17;;;;;;;13.98;8.45;;;;;;;7.66;35.97;100525.99;1761945;79;21425;-71
2021/03/10 01:39:44;;;;;;;15.68;8.93;;;;;;;7.65;36.00;100526.98;1753790;80;21216;-72
2021/03/10 01:42:13;;;;;;;11.70;8.58;;;;;;;7.63;35.99;100528.91;1766913;79;21646;-71
2021/03/10 01:44:42;;;;;;;15.10;9.55;;;;;;;7.63;35.99;100528.05;1763432;80;21491;-69
2021/03/10 01:47:11;;;;;;;15.05;10.53;;;;;;;7.62;36.03;100529.04;1761136;81;21139;-69
2021/03/10 01:49:40;;;;;;;15.65;10.15;;;;;;;7.60;36.04;100522.55;1720649;83;21131;-70
2021/03/10 01:52:09;;;;;;;15.68;10.28;;;;;;;7.60;36.04;100525.20;1747220;81;22569;-70
2021/03/10 01:54:36;;;;;;;17.80;11.33;;;;;;;7.58;36.01;100524.48;1764596;80;21172;-71
2021/03/10 01:57:04;;;;;;;15.83;11.03;;;;;;;7.58;36.00;100525.81;1757216;81;21351;-71
2021/03/10 01:59:31;;;;;;;15.18;10.50;;;;;;;7.57;35.98;100528.12;1761554;81;21177;-69
2021/03/10 02:01:58;;;;;;;13.55;9.73;;;;;;;7.55;36.01;100530.05;1766010;81;21472;-71
2021/03/10 02:04:28;;;;;;;14.07;10.55;;;;;;;7.53;36.02;100529.31;1760003;80;21205;-71
2021/03/10 02:07:13;;;;;;;17.17;10.58;;;;;;;7.55;36.01;100531.84;1764748;81;21138;-70
2021/03/10 02:10:20;;;;;;;15.05;9.70;;;;;;;7.53;36.01;100535.09;1765175;81;21178;-70
2021/03/10 02:13:14;;;;;;;15.40;10.65;;;;;;;7.51;35.99;100537.03;1762613;81;21090;-70
2021/03/10 02:16:03;;;;;;;15.72;10.08;;;;;;;7.47;36.04;100533.80;1760015;81;21091;-69
2021/03/10 02:18:38;;;;;;;15.63;10.58;;;;;;;7.45;36.07;100533.09;1765950;81;21215;-71
2021/03/10 02:21:28;;;;;;;17.82;11.63;;;;;;;7.43;36.08;100520.48;1764387;81;21194;-70
2021/03/10 02:24:12;;;;;;;16.70;11.53;;;;;;;7.40;36.12;100524.23;1773715;78;21093;-70
2021/03/10 02:27:35;;;;;;;16.65;11.57;;;;;;;7.37;36.19;100521.84;1776724;80;21145;-70
2021/03/10 02:30:25;;;;;;;16.55;9.75;;;;;;;7.37;36.13;100524.98;1701200;83;21615;-71
2021/03/10 02:32:59;;;;;;;13.70;9.53;;;;;;;7.33;36.15;100518.27;1703788;83;22297;-71
2021/03/10 02:35:28;;;;;;;13.62;9.68;;;;;;;7.30;36.16;100524.63;1709293;80;21155;-71
2021/03/10 02:38:03;;;;;;;13.75;9.40;;;;;;;7.27;36.21;100520.45;1777590;80;21133;-72
2021/03/10 02:40:34;;;;;;;11.83;8.40;;;;;;;7.28;36.16;100519.50;1780433;80;21202;-72
2021/03/10 02:43:02;;;;;;;11.73;8.10;;;;;;;7.27;36.14;100519.62;1780084;79;21118;-72
2021/03/10 02:45:29;;;;;;;11.45;7.87;;;;;;;7.27;36.16;100518.30;1774208;79;21373;-72
2021/03/10 02:47:59;;;;;;;11.40;7.60;;;;;;;7.27;36.10;100518.30;1777433;79;21163;-71
2021/03/10 02:50:27;;;;;;;12.63;7.75;;;;;;;7.27;36.10;100519.13;1779522;80;21142;-71
2021/03/10 02:52:57;;;;;;;9.53;7.30;;;;;;;7.26;36.08;100516.14;1753531;80;21480;-72
2021/03/10 02:55:25;;;;;;;10.68;6.92;;;;;;;7.27;36.08;100514.33;1779089;79;21134;-72
2021/03/10 02:57:52;;;;;;;10.28;7.25;;;;;;;7.26;36.03;100512.64;1770661;80;22261;-72
2021/03/10 03:00:22;;;;;;;10.40;6.55;;;;;;;7.26;36.08;100520.11;1767813;79;21154;-72
2021/03/10 03:02:49;;;;;;;9.90;6.83;;;;;;;7.25;36.01;100518.42;1773993;80;21141;-72
2021/03/10 03:05:17;;;;;;;10.48;6.70;;;;;;;7.25;36.07;100518.42;1778079;80;21170;-72
2021/03/10 03:07:46;;;;;;;9.33;6.45;;;;;;;7.25;36.05;100516.27;1778929;80;21167;-73
2021/03/10 03:10:18;;;;;;;9.23;6.62;;;;;;;7.25;36.05;100526.34;1776126;79;22479;-72
2021/03/10 03:12:46;;;;;;;10.10;6.42;;;;;;;7.25;35.98;100522.38;1773119;79;21563;-72
2021/03/10 03:15:16;;;;;;;8.65;6.05;;;;;;;7.25;36.02;100521.55;1769465;79;21206;-72
2021/03/10 03:17:45;;;;;;;8.93;6.55;;;;;;;7.24;35.95;100520.72;1777694;80;21193;-70
2021/03/10 03:20:15;;;;;;;11.73;6.62;;;;;;;7.23;35.91;100524.31;1782470;80;21169;-71
2021/03/10 03:22:51;;;;;;;8.53;6.15;;;;;;;7.24;35.94;100522.05;1771078;80;21333;-71
2021/03/10 03:25:31;;;;;;;8.55;6.03;;;;;;;7.23;35.92;100526.95;1776864;79;21143;-70
2021/03/10 03:28:02;;;;;;;9.85;6.10;;;;;;;7.22;35.89;100525.76;1779696;79;21186;-71
2021/03/10 03:30:36;;;;;;;7.47;5.80;;;;;;;7.22;35.89;100531.91;1778195;80;21162;-70
2021/03/10 03:33:10;;;;;;;11.83;7.00;;;;;;;7.20;35.85;100524.55;1781103;79;21193;-70
2021/03/10 03:35:42;;;;;;;11.00;6.42;;;;;;;7.20;35.83;100529.84;1776216;79;21406;-72
2021/03/10 03:38:09;;;;;;;10.18;5.90;;;;;;;7.17;35.83;100528.80;1776348;80;21189;-71
2021/03/10 03:40:37;;;;;;;8.23;5.80;;;;;;;7.17;35.83;100534.08;1779685;79;21158;-72
2021/03/10 03:43:08;;;;;;;7.97;5.60;;;;;;;7.16;35.87;100535.03;1775034;80;21170;-72
2021/03/10 03:45:39;;;;;;;7.87;5.47;;;;;;;7.16;35.92;100532.39;1777233;79;21154;-71
2021/03/10 03:48:08;;;;;;;7.65;5.58;;;;;;;7.16;35.88;100528.42;1771913;79;21381;-72
2021/03/10 03:50:35;;;;;;;8.00;5.58;;;;;;;7.15;35.85;100530.73;1780029;79;21184;-71
2021/03/10 03:53:03;;;;;;;11.97;6.60;;;;;;;7.16;35.88;100527.59;1777453;79;21178;-71
2021/03/10 03:55:31;;;;;;;7.83;5.85;;;;;;;7.14;35.88;100519.78;1773243;80;21204;-72
2021/03/10 03:57:59;;;;;;;7.97;5.60;;;;;;;7.15;35.84;100534.69;1775495;79;21164;-72
2021/03/10 04:00:26;;;;;;;8.68;5.85;;;;;;;7.14;35.84;100531.67;1771503;79;21372;-70
2021/03/10 04:02:54;;;;;;;7.45;5.33;;;;;;;7.14;35.77;100533.00;1778468;80;21196;-71
2021/03/10 04:05:23;;;;;;;9.08;5.58;;;;;;;7.13;35.78;100536.63;1783476;79;21165;-71
2021/03/10 04:07:55;;;;;;;6.58;5.42;;;;;;;7.13;35.81;100530.47;1777125;80;21158;-74
2021/03/10 04:10:31;;;;;;;7.97;5.83;;;;;;;7.13;35.78;100526.52;1752773;80;22194;-71
2021/03/10 04:12:59;;;;;;;7.95;5.12;;;;;;;7.12;35.78;100527.50;1736818;81;21631;-71
2021/03/10 04:15:29;;;;;;;7.35;4.72;;;;;;;7.09;35.75;100525.95;1738440;81;21157;-72
2021/03/10 04:17:57;;;;;;;11.28;5.62;;;;;;;7.09;35.75;100524.63;1732696;82;21170;-70
2021/03/10 04:20:24;;;;;;;7.10;4.70;;;;;;;7.09;35.74;100529.42;1736275;81;21188;-71
2021/03/10 04:22:52;;;;;;;6.15;4.65;;;;;;;7.09;35.74;100528.59;1737080;81;21164;-71
2021/03/10 04:25:21;;;;;;;7.10;4.62;;;;;;;7.10;35.71;100530.26;1735471;81;21215;-71
2021/03/10 04:27:49;;;;;;;7.47;4.95;;;;;;;7.08;35.66;100533.51;1734898;82;21193;-71
2021/03/10 04:30:18;;;;;;;8.50;6.10;;;;;;;7.08;35.65;100533.51;1735568;81;21122;-72
2021/03/10 04:32:45;;;;;;;7.05;5.25;;;;;;;7.08;35.66;100537.47;1735859;81;21191;-72
2021/03/10 04:35:14;;;;;;;6.85;4.97;;;;;;;7.07;35.66;100540.61;1698960;82;21174;-72
2021/03/10 04:37:41;;;;;;;6.10;4.17;;;;;;;7.08;35.66;100540.11;1735202;81;21409;-72
2021/03/10 04:40:11;;;;;;;9.03;4.87;;;;;;;7.06;35.61;100538.08;1733870;81;21166;-72
2021/03/10 04:42:39;;;;;;;7.47;4.60;;;;;;;7.06;35.59;100538.91;1735358;81;21142;-73
2021/03/10 04:45:09;;;;;;;8.80;6.72;;;;;;;7.04;35.62;100546.62;1730249;82;21171;-71
2021/03/10 04:47:37;;;;;;;8.85;5.67;;;;;;;7.03;35.65;100541.83;1729285;81;21176;-71
2021/03/10 04:50:07;;;;;;;8.70;6.10;;;;;;;7.04;35.68;100545.30;1734182;81;21204;-71
2021/03/10 04:52:34;;;;;;;9.58;6.42;;;;;;;7.03;35.68;100540.50;1735701;82;21192;-73
2021/03/10 04:55:04;;;;;;;11.25;6.60;;;;;;;7.04;35.69;100530.77;1737108;81;21623;-72
2021/03/10 04:57:31;;;;;;;9.85;5.78;;;;;;;7.04;35.69;100542.16;1727281;82;21170;-73
2021/03/10 05:00:01;;;;;;;8.28;5.95;;;;;;;7.05;35.66;100545.17;1736100;81;21163;-73
2021/03/10 05:02:28;;;;;;;8.53;6.17;;;;;;;7.06;35.66;100548.66;1727762;81;21389;-72
2021/03/10 05:04:55;;;;;;;10.45;5.12;;;;;;;7.05;35.63;100545.17;1717788;82;21193;-72
2021/03/10 05:07:23;;;;;;;8.98;6.20;;;;;;;7.05;35.64;100541.67;1735190;82;21207;-71
2021/03/10 05:09:52;;;;;;;7.47;5.72;;;;;;;7.07;35.63;100549.02;1725149;81;21214;-71
2021/03/10 05:12:20;;;;;;;9.40;5.92;;;;;;;7.06;35.63;100556.09;1727897;81;21131;-72
2021/03/10 05:14:48;;;;;;;8.48;6.60;;;;;;;7.08;35.63;100555.97;1733511;82;21347;-72
2021/03/10 05:17:15;;;;;;;10.72;6.62;;;;;;;7.09;35.64;100556.34;1734289;82;21230;-72
2021/03/10 05:19:44;;;;;;;8.60;6.45;;;;;;;7.11;35.61;100556.19;1734072;80;21172;-74
2021/03/10 05:22:11;;;;;;;8.38;5.72;;;;;;;7.12;35.63;100552.59;1771775;80;21190;-71
2021/03/10 05:24:39;;;;;;;9.20;6.10;;;;;;;7.12;35.56;100556.07;1777884;78;21138;-72
2021/03/10 05:27:07;;;;;;;9.33;6.53;;;;;;;7.13;35.55;100555.58;1777872;80;21278;-72
2021/03/10 05:29:35;;;;;;;10.45;5.95;;;;;;;7.14;35.54;100561.23;1775249;79;21138;-72
2021/03/10 05:32:05;;;;;;;8.53;5.37;;;;;;;7.15;35.56;100563.76;1776006;79;21134;-71
2021/03/10 05:34:32;;;;;;;10.18;5.72;;;;;;;7.15;35.50;100566.40;1751155;80;21158;-71
2021/03/10 05:37:01;;;;;;;7.37;5.40;;;;;;;7.16;35.49;100559.30;1770597;79;21188;-72
2021/03/10 05:39:28;;;;;;;10.08;5.33;;;;;;;7.17;35.48;100555.22;1774640;79;22287;-72
2021/03/10 05:41:56;;;;;;;11.80;5.60;;;;;;;7.18;35.46;100559.52;1773017;80;21247;-71
2021/03/10 05:44:24;;;;;;;9.50;5.65;;;;;;;7.19;35.48;100560.38;1775731;80;21181;-70
2021/03/10 05:46:54;;;;;;;7.97;5.60;;;;;;;7.20;35.44;100568.66;1773939;80;21583;-71
2021/03/10 05:49:22;;;;;;;6.87;5.12;;;;;;;7.21;35.44;100572.50;1769833;80;21386;-70
2021/03/10 05:51:50;;;;;;;10.10;5.53;;;;;;;7.21;35.43;100572.50;1775829;80;22294;-70
2021/03/10 05:54:19;;;;;;;7.72;5.25;;;;;;;7.22;35.39;100575.52;1777627;80;21186;-72
2021/03/10 05:56:47;;;;;;;7.83;4.90;;;;;;;7.23;35.39;100581.14;1772019;80;21169;-71
2021/03/10 05:59:14;;;;;;;7.33;5.10;;;;;;;7.23;35.32;100584.27;1775319;80;21181;-71
2021/03/10 06:01:41;;;;;;;7.78;5.42;;;;;;;7.27;35.32;100584.38;1775556;80;21674;-71
2021/03/10 06:04:09;;;;;;;7.72;5.15;;;;;;;7.28;35.27;100590.00;1730654;80;21203;-72
2021/03/10 06:06:41;;;;;;;7.03;5.10;;;;;;;7.30;35.21;100592.03;1776244;79;21138;-70
2021/03/10 06:09:16;;;;;;;8.38;5.10;;;;;;;7.32;35.15;100590.13;1776404;79;21177;-70
2021/03/10 06:14:39;;;;;;;9.13;5.62;;;;;;;7.41;35.08;100596.45;1797910;79;27750;-71
2021/03/10 06:17:10;;;;;;;8.53;5.55;;;;;;;7.38;35.09;100603.30;1783958;79;21131;-73
2021/03/10 06:19:47;;;;;;;9.05;5.90;;;;;;;7.40;35.00;100602.22;1797961;79;22304;-73
2021/03/10 06:22:16;;;;;;;8.65;5.65;;;;;;;7.42;35.00;100603.42;1800848;79;21174;-71
2021/03/10 06:24:43;;;;;;;7.67;5.80;;;;;;;7.44;34.97;100610.75;1797119;79;21163;-72
2021/03/10 06:27:10;;;;;;;8.40;6.58;;;;;;;7.46;34.93;100607.49;1801173;79;21239;-71
2021/03/10 06:29:38;;;;;;;9.85;5.97;;;;;;;7.47;34.87;100600.76;1759796;80;21561;-71
2021/03/10 06:32:08;;;;;;;8.30;6.05;;;;;;;7.50;34.84;100601.47;1773654;79;21405;-71
2021/03/10 06:34:50;;;;;;;10.43;6.17;;;;;;;7.51;34.83;100596.03;1775679;79;22033;-71
2021/03/10 06:39:41;;;;;;;8.00;5.92;;;;;;;7.60;34.66;100608.49;1769509;79;27551;-72
2021/03/10 06:42:13;;;;;;;6.40;5.20;;;;;;;7.53;34.61;100617.89;1730093;81;21646;-73
2021/03/10 06:44:50;;;;;;;8.53;5.70;;;;;;;7.57;34.54;100615.38;1764833;80;21213;-70
2021/03/10 06:47:18;;;;;;;9.13;6.08;;;;;;;7.60;34.49;100607.17;1737570;80;21630;-71
2021/03/10 06:49:51;;;;;;;7.40;5.55;;;;;;;7.62;34.39;100606.56;1801253;77;21532;-71
2021/03/10 06:52:18;;;;;;;7.15;4.87;;;;;;;7.64;34.38;100601.98;1727342;81;21231;-71
2021/03/10 06:54:59;;;;;;;6.40;5.05;;;;;;;7.66;34.31;100607.14;1777063;80;21145;-70
2021/03/10 06:57:27;;;;;;;8.05;5.35;;;;;;;7.67;34.27;100608.34;1757518;80;21366;-72
2021/03/10 06:59:57;;;;;;;6.42;4.70;;;;;;;7.70;34.25;100611.70;1730890;81;21139;-71
2021/03/10 07:02:27;;;;;;;6.20;4.92;;;;;;;7.71;34.22;100609.39;1793938;78;21596;-72
2021/03/10 07:04:57;;;;;;;7.15;4.80;;;;;;;7.72;34.21;100613.24;1798593;77;21151;-71
2021/03/10 07:07:26;;;;;;;5.67;4.00;;;;;;;7.75;34.17;100612.16;1789040;77;21114;-71
2021/03/10 07:09:54;;;;;;;8.28;5.05;;;;;;;7.76;34.14;100615.98;1733161;81;21429;-72
2021/03/10 07:12:23;;;;;;;6.42;3.98;;;;;;;7.79;34.12;100615.73;1734227;80;21182;-70
2021/03/10 07:14:51;;;;;;;5.08;3.92;;;;;;;7.81;34.04;100617.77;1729091;81;21664;-71
2021/03/10 07:17:21;;;;;;;4.80;3.45;;;;;;;7.84;34.00;100608.27;1794828;78;21180;-71
2021/03/10 07:19:49;;;;;;;5.40;3.65;;;;;;;7.85;33.99;100607.77;1803423;78;21142;-72
2021/03/10 07:22:44;;;;;;;5.67;3.67;;;;;;;7.90;33.91;100613.98;1805972;78;21195;-71
2021/03/10 07:25:31;;;;;;;;;;;;;;;7.92;33.83;100601.46;1799521;78;21162;-71
2021/03/10 07:28:06;;;;;;;5.25;2.87;;;;;;;7.93;33.75;100599.19;1793753;78;20278;-70
2021/03/10 07:30:45;;;;;;;4.85;3.42;;;;;;;7.86;33.84;100604.14;1793013;78;21123;-71
2021/03/10 07:33:17;;;;;;;5.08;3.35;;;;;;;7.89;33.77;100599.92;1737331;81;21191;-70
2021/03/10 07:36:02;;;;;;;5.60;3.77;;;;;;;7.93;33.69;100605.80;1763059;80;21371;-71
2021/03/10 07:38:38;;;;;;;5.62;3.83;;;;;;;7.98;34.56;100604.94;1749877;80;21603;-78
2021/03/10 07:41:13;;;;;;;6.92;3.92;;;;;;;8.04;38.88;100602.59;1736783;81;21178;-70
2021/03/10 07:43:47;;;;;;;;;;;;;;;8.15;41.86;100604.80;1726117;81;21133;-70
2021/03/10 07:46:29;;;;;;;4.87;3.58;;;;;;;8.27;44.86;100609.06;1732284;82;20277;-69
2021/03/10 07:48:57;;;;;;;6.40;3.62;;;;;;;8.32;46.31;100605.52;1731783;82;21362;-69
2021/03/10 07:51:34;;;;;;;6.20;3.58;;;;;;;8.45;47.37;100600.03;1731245;82;21612;-69
2021/03/10 07:54:05;;;;;;;5.78;3.87;;;;;;;8.58;48.15;100601.14;1746945;80;21149;-71
2021/03/10 07:56:33;;;;;;;5.65;4.03;;;;;;;8.71;48.76;100597.77;1709359;81;21819;-71
2021/03/10 07:59:19;;;;;;;5.50;3.95;;;;;;;8.83;49.08;100627.14;1733900;82;21131;-70
2021/03/10 08:01:48;;;;;;;5.03;3.85;;;;;;;8.96;49.21;100622.94;1781296;79;22266;-73
2021/03/10 08:04:17;;;;;;;6.97;4.03;;;;;;;9.09;49.54;100624.48;1778193;79;21178;-71
2021/03/10 08:06:48;;;;;;;5.67;3.92;;;;;;;9.20;50.21;100621.72;1785680;78;21147;-70
2021/03/10 08:09:18;;;;;;;6.75;3.92;;;;;;;9.33;50.75;100624.94;1784062;79;21165;-71
2021/03/10 08:11:48;;;;;;;6.37;3.90;;;;;;;9.46;51.07;100629.95;1779559;79;21163;-70
2021/03/10 08:14:17;;;;;;;5.47;4.30;;;;;;;9.56;51.23;100601.63;1739803;81;21479;-72
2021/03/10 08:16:48;;;;;;;7.12;4.17;;;;;;;9.70;51.02;100599.53;1728994;80;21169;-71
2021/03/10 08:19:22;;;;;;;5.95;3.70;;;;;;;9.80;50.65;100601.17;1748057;80;21139;-70
2021/03/10 08:21:55;;;;;;;6.78;3.58;;;;;;;9.92;50.26;100604.50;1753438;80;21217;-68
2021/03/10 08:24:23;;;;;;;6.37;4.15;;;;;;;10.03;49.91;100601.69;1754019;80;21197;-71
2021/03/10 08:26:55;;;;;;;5.53;3.75;;;;;;;10.14;49.52;100596.72;1724664;81;21609;-70
2021/03/10 08:29:26;;;;;;;6.83;4.08;;;;;;;10.26;49.21;100605.34;1720453;81;21234;-70
2021/03/10 08:31:57;;;;;;;5.75;4.33;;;;;;;10.36;48.92;100596.04;1732061;82;21170;-71
2021/03/10 08:34:33;;;;;;;6.60;4.62;;;;;;;10.47;48.71;100592.34;1777470;80;21559;-73
2021/03/10 08:37:01;;;;;;;5.40;4.22;;;;;;;10.57;48.40;100598.47;1776799;79;21210;-71
2021/03/10 08:39:29;;;;;;;5.35;3.58;;;;;;;10.67;48.22;100592.61;1777609;78;21314;-69
2021/03/10 08:41:57;;;;;;;6.45;4.05;;;;;;;10.77;48.00;100594.70;1782262;80;21643;-69
2021/03/10 08:44:26;;;;;;;6.22;3.83;;;;;;;10.87;47.77;100595.16;1778866;78;21159;-71
2021/03/10 08:46:55;;;;;;;7.67;4.67;;;;;;;10.97;47.65;100590.61;1778904;80;21596;-71
2021/03/10 08:49:29;;;;;;;9.78;4.58;;;;;;;11.08;47.50;100589.06;1786679;78;21131;-72
2021/03/10 08:52:13;;;;;;;5.50;3.85;;;;;;;11.18;47.38;100587.20;1782767;80;21432;-71
2021/03/10 08:55:01;;;;;;;6.15;4.20;;;;;;;11.29;47.30;100576.80;1789074;78;21218;-70
2021/03/10 08:57:34;;;;;;;6.33;4.15;;;;;;;11.38;47.19;100635.75;1780969;78;21131;-72
2021/03/10 09:00:07;;;;;;;4.75;4.03;;;;;;;11.46;46.88;100629.67;1778107;80;21159;-72
2021/03/10 09:02:37;;;;;;;5.67;4.10;;;;;;;11.52;46.61;100633.55;1768328;80;21171;-72
2021/03/10 09:05:07;;;;;;;5.17;3.27;;;;;;;11.57;46.47;100628.59;1758169;80;21208;-72
2021/03/10 09:07:35;;;;;;;7.35;4.15;;;;;;;11.62;46.36;100624.98;1763748;80;21150;-70
2021/03/10 09:10:12;;;;;;;6.20;3.92;;;;;;;11.67;46.23;100623.21;1771901;80;21193;-68
2021/03/10 09:12:42;;;;;;;8.53;4.22;;;;;;;11.61;46.06;100610.85;1780385;78;21186;-73
2021/03/10 09:15:16;;;;;;;5.92;3.70;;;;;;;11.76;45.82;100629.78;1782806;78;21131;-69
2021/03/10 09:17:43;;;;;;;5.10;3.45;;;;;;;11.80;45.82;100619.16;1779650;80;22287;-69
2021/03/10 09:20:27;;;;;;;4.87;3.60;;;;;;;11.87;45.54;100620.69;1787116;78;21135;-69
2021/03/10 09:22:57;;;;;;;5.65;3.98;;;;;;;11.92;45.13;100621.11;1785848;78;21209;-70
2021/03/10 09:25:41;;;;;;;5.25;3.55;;;;;;;12.04;44.95;100618.20;1755369;79;28238;-71
2021/03/10 09:28:14;;;;;;;6.42;3.77;;;;;;;12.05;44.77;100618.02;1744608;82;21179;-70
2021/03/10 09:30:47;;;;;;;7.50;4.40;;;;;;;12.12;44.89;100624.90;1742632;80;21389;-71
2021/03/10 09:33:28;;;;;;;5.42;3.67;;;;;;;12.20;44.88;100620.95;1741359;79;21210;-72
2021/03/10 09:36:01;;;;;;;5.25;3.42;;;;;;;12.27;44.68;100610.01;1741588;79;20992;-70
2021/03/10 09:38:31;;;;;;;5.30;3.62;;;;;;;12.36;44.52;100613.06;1750840;81;21158;-69
2021/03/10 09:41:03;;;;;;;3.98;3.40;;;;;;;12.44;44.17;100614.94;1756893;79;21134;-69
2021/03/10 09:43:33;;;;;;;4.67;3.42;;;;;;;12.53;43.97;100618.46;1726918;81;21385;-70
2021/03/10 09:46:08;;;;;;;5.05;3.27;;;;;;;12.63;43.59;100616.50;1753731;79;21052;-70
2021/03/10 09:48:40;;;;;;;4.28;3.72;;;;;;;12.74;43.38;100624.72;1751893;79;21198;-71
2021/03/10 09:51:16;;;;;;;4.53;3.15;;;;;;;12.84;43.29;100619.26;1801376;77;21173;-70
2021/03/10 09:53:50;;;;;;;5.35;3.47;;;;;;;12.95;42.99;100613.63;1797272;79;21221;-69
2021/03/10 09:56:21;;;;;;;3.85;3.20;;;;;;;13.06;43.02;100615.17;1792903;77;21427;-69
2021/03/10 09:58:59;;;;;;;4.67;3.00;;;;;;;13.17;43.02;100624.17;1797983;77;21133;-70
2021/03/10 10:01:29;;;;;;;4.08;3.22;;;;;;;13.30;42.92;100621.08;1762371;79;21181;-70
2021/03/10 10:03:59;;;;;;;5.67;3.42;;;;;;;13.42;42.91;100616.25;1729593;81;21162;-71
2021/03/10 10:06:28;;;;;;;5.08;3.80;;;;;;;13.53;42.96;100617.27;1746516;79;21225;-71
2021/03/10 10:08:56;;;;;;;5.92;3.58;;;;;;;13.66;42.94;100622.12;1744590;79;21217;-71
2021/03/10 10:11:26;;;;;;;5.58;3.92;;;;;;;13.77;42.83;100617.75;1754137;79;21209;-71
2021/03/10 10:13:54;;;;;;;4.70;3.58;;;;;;;13.89;42.67;100612.42;1752166;79;21198;-70
2021/03/10 10:16:22;;;;;;;5.33;3.35;;;;;;;14.03;42.37;100610.90;1740522;79;21649;-70
2021/03/10 10:18:51;;;;;;;4.78;3.45;;;;;;;14.15;42.23;100610.04;1718330;82;21158;-71
2021/03/10 10:21:19;;;;;;;4.33;3.47;;;;;;;14.27;42.16;100610.00;1757975;80;21196;-66
2021/03/10 10:23:48;;;;;;;4.70;3.45;;;;;;;14.39;41.91;100601.14;1745577;81;21689;-68
2021/03/10 10:26:17;;;;;;;4.40;3.10;;;;;;;14.52;41.78;100604.59;1729848;81;21237;-69
2021/03/10 10:28:46;;;;;;;5.28;3.35;;;;;;;14.66;41.68;100601.23;1727918;82;21198;-68
2021/03/10 10:31:16;;;;;;;3.30;2.92;;;;;;;14.79;41.60;100601.99;1730724;82;21214;-69
2021/03/10 10:33:44;;;;;;;5.12;3.62;;;;;;;14.93;41.48;100604.42;1722663;81;21208;-71
2021/03/10 10:36:13;;;;;;;4.55;2.98;;;;;;;15.07;41.45;100594.84;1736993;82;21209;-70
2021/03/10 10:38:42;;;;;;;5.05;3.65;;;;;;;15.21;41.23;100588.72;1728601;82;21171;-72
2021/03/10 10:41:11;;;;;;;3.80;2.80;;;;;;;15.35;41.12;100597.81;1766850;80;21171;-73
2021/03/10 10:43:39;;;;;;;4.55;3.35;;;;;;;15.47;40.91;100589.71;1765435;79;21118;-70
2021/03/10 10:46:08;;;;;;;3.80;3.02;;;;;;;15.62;40.83;100594.27;1771586;80;21347;-72
2021/03/10 10:48:37;;;;;;;4.03;3.05;;;;;;;15.75;40.68;100583.81;1720047;83;22146;-71
2021/03/10 10:51:07;;;;;;;3.92;3.22;;;;;;;15.89;40.62;100580.83;1724097;81;21174;-69
2021/03/10 10:53:38;;;;;;;4.78;3.27;;;;;;;16.02;40.46;100578.87;1717880;83;21107;-70
2021/03/10 10:56:06;;;;;;;3.72;2.80;;;;;;;16.16;40.28;100568.66;1723418;83;21163;-68
2021/03/10 10:58:34;;;;;;;3.95;2.98;;;;;;;16.31;40.05;100570.00;1712817;81;21392;-69
2021/03/10 11:01:02;;;;;;;5.87;3.25;;;;;;;16.46;39.86;100568.14;1726445;83;21095;-70
2021/03/10 11:03:30;;;;;;;4.08;2.80;;;;;;;16.70;39.63;100568.33;1727509;83;21244;-69
2021/03/10 11:05:58;;;;;;;3.98;3.58;;;;;;;17.07;39.34;100564.33;1712809;81;21194;-71
2021/03/10 11:08:28;;;;;;;3.15;2.50;;;;;;;17.51;38.85;100563.30;1717481;83;21194;-70
2021/03/10 11:10:57;;;;;;;3.72;3.10;;;;;;;18.01;38.19;100564.12;1738559;82;21422;-72
2021/03/10 11:13:26;;;;;;;3.83;2.72;;;;;;;18.53;37.45;100564.62;1734598;81;21197;-71
2021/03/10 11:15:56;;;;;;;4.85;3.65;;;;;;;19.09;36.65;100560.91;1737209;81;21145;-71
2021/03/10 11:18:33;;;;;;;3.85;3.02;;;;;;;19.66;35.82;100554.61;1804461;77;22638;-70
2021/03/10 11:21:01;;;;;;;3.60;3.15;;;;;;;19.94;35.18;100553.07;1772906;78;21155;-67
2021/03/10 11:23:29;;;;;;;3.08;2.77;;;;;;;20.12;34.75;100552.94;1802215;78;21422;-74
2021/03/10 11:25:58;;;;;;;4.00;2.75;;;;;;;20.28;34.49;100547.09;1800780;77;21173;-74
2021/03/10 11:28:27;;;;;;;3.05;2.70;;;;;;;20.51;34.08;100554.66;1793377;77;21173;-71
2021/03/10 11:30:56;;;;;;;3.77;2.95;;;;;;;20.73;33.75;100549.84;1795379;77;21886;-68
2021/03/10 11:33:24;;;;;;;3.15;2.62;;;;;;;20.80;33.59;100546.59;1781389;77;21610;-70
2021/03/10 11:35:52;;;;;;;3.62;2.80;;;;;;;20.84;33.51;100549.66;1787436;78;22274;-70
2021/03/10 11:38:20;;;;;;;4.50;3.10;;;;;;;20.80;33.57;100547.94;1768925;80;21316;-71
2021/03/10 11:40:48;;;;;;;4.12;2.90;;;;;;;20.72;33.68;100548.17;1787280;77;21614;-72
2021/03/10 11:43:16;;;;;;;3.37;2.83;;;;;;;20.65;33.86;100547.89;1764380;80;21223;-70
2021/03/10 11:45:45;;;;;;;2.98;2.67;;;;;;;20.55;33.95;100545.13;1788788;78;21116;-69
2021/03/10 11:48:13;;;;;;;3.42;2.72;;;;;;;20.52;34.04;100544.19;1787666;78;21207;-74
2021/03/10 11:50:40;;;;;;;3.58;3.00;;;;;;;20.52;34.15;100545.53;1801062;78;21222;-72